Time;durP1;ratioP1;P1;durP2;ratioP2;P2;SDS_P1;SDS_P2;PMS_P1;PMS_P2;Temp;Humidity;BMP_temperature;BMP_pressure;BME280_temperature;BME280_humidity;BME280_pressure;Samples;Min_cycle;Max_cycle;Signal;HPM_P1;HPM_P2
2023/06/04 00:00:36;;;;;;;243.43;232.77;;;8.80;99.90;;;;;;5070422;28;20039;-75
2023/06/04 00:03:02;;;;;;;244.98;234.10;;;8.70;99.90;;;;;;5072835;28;20043;-75
2023/06/04 00:05:27;;;;;;;227.40;217.25;;;8.70;99.90;;;;;;5084592;28;20040;-75
2023/06/04 00:07:53;;;;;;;215.55;206.15;;;8.70;99.90;;;;;;5069978;28;20119;-75
2023/06/04 00:10:19;;;;;;;225.30;215.43;;;8.70;99.90;;;;;;5073370;28;20044;-76
2023/06/04 00:12:45;;;;;;;220.20;210.82;;;8.60;99.90;;;;;;5071923;28;20074;-76
2023/06/04 00:15:10;;;;;;;224.25;214.35;;;8.60;99.90;;;;;;5072221;28;20479;-75
2023/06/04 00:17:36;;;;;;;211.82;202.60;;;8.60;99.90;;;;;;5089081;28;20410;-75
2023/06/04 00:20:02;;;;;;;203.18;194.07;;;8.50;99.90;;;;;;5066849;28;20039;-75
2023/06/04 00:22:28;;;;;;;213.85;204.73;;;8.50;99.90;;;;;;5071523;28;20146;-75
2023/06/04 00:24:54;;;;;;;239.50;229.38;;;8.50;99.90;;;;;;5063366;28;20119;-76
2023/06/04 00:27:20;;;;;;;216.15;206.68;;;8.50;99.90;;;;;;5085778;28;20142;-75
2023/06/04 00:29:45;;;;;;;210.93;201.57;;;8.40;99.90;;;;;;5070914;28;20056;-75
2023/06/04 00:32:11;;;;;;;206.30;197.15;;;8.40;99.90;;;;;;5089042;28;20104;-75
2023/06/04 00:34:36;;;;;;;201.98;193.00;;;8.40;99.90;;;;;;5087284;28;20057;-75
2023/06/04 00:37:02;;;;;;;204.25;195.25;;;8.40;99.90;;;;;;5090362;28;20039;-75
2023/06/04 00:39:29;;;;;;;194.90;185.98;;;8.40;99.90;;;;;;5088792;28;20092;-75
2023/06/04 00:41:55;;;;;;;189.32;181.02;;;8.40;99.90;;;;;;5086775;28;20048;-75
2023/06/04 00:44:21;;;;;;;189.48;180.90;;;8.30;99.90;;;;;;5079278;28;20046;-75
2023/06/04 00:46:49;;;;;;;190.50;181.77;;;8.30;99.90;;;;;;5089033;28;20047;-75
2023/06/04 00:49:15;;;;;;;190.05;181.65;;;8.20;99.90;;;;;;5071456;28;20131;-75
2023/06/04 00:51:40;;;;;;;193.57;184.60;;;8.20;99.90;;;;;;5086731;28;20118;-76
2023/06/04 00:54:08;;;;;;;171.88;163.68;;;8.20;99.90;;;;;;5089192;28;20035;-75
2023/06/04 00:56:37;;;;;;;174.82;166.55;;;8.20;99.90;;;;;;5064166;28;20590;-75
2023/06/04 00:59:04;;;;;;;174.38;166.00;;;8.20;99.90;;;;;;5070740;28;20049;-75
2023/06/04 01:01:50;;;;;;;178.27;169.90;;;8.10;99.90;;;;;;5088759;28;20044;-75
2023/06/04 01:04:27;;;;;;;189.05;179.85;;;8.10;99.90;;;;;;5067432;28;20048;-75
2023/06/04 01:06:57;;;;;;;180.45;171.95;;;8.10;99.90;;;;;;5075993;28;20110;-75
2023/06/04 01:09:22;;;;;;;187.98;178.90;;;8.10;99.90;;;;;;5086840;28;20822;-75
2023/06/04 01:11:48;;;;;;;188.77;180.32;;;8.20;99.90;;;;;;5074867;28;20058;-75
2023/06/04 01:14:15;;;;;;;180.02;171.30;;;8.20;99.90;;;;;;5085829;28;20384;-75
2023/06/04 01:17:03;;;;;;;181.70;173.48;;;8.20;99.90;;;;;;5081000;28;20044;-75
2023/06/04 01:19:51;;;;;;;196.70;187.73;;;8.10;99.90;;;;;;5077746;28;20043;-76
2023/06/04 01:22:31;;;;;;;198.57;189.13;;;8.10;99.90;;;;;;5080658;28;20047;-74
2023/06/04 01:25:02;;;;;;;198.73;189.15;;;8.10;99.90;;;;;;5078133;28;20123;-75
2023/06/04 01:27:29;;;;;;;195.50;186.35;;;8.00;99.90;;;;;;5083127;28;20088;-75
2023/06/04 01:29:56;;;;;;;196.15;186.63;;;8.10;99.90;;;;;;5082482;28;20411;-75
2023/06/04 01:32:23;;;;;;;196.07;187.10;;;8.10;99.90;;;;;;5087540;28;20108;-75
2023/06/04 01:34:49;;;;;;;197.70;188.48;;;8.00;99.90;;;;;;5083941;28;20088;-75
2023/06/04 01:37:16;;;;;;;198.60;189.32;;;8.00;99.90;;;;;;5091967;28;20043;-74
2023/06/04 01:39:42;;;;;;;211.27;201.35;;;8.10;99.90;;;;;;5084723;28;20043;-75
2023/06/04 01:42:08;;;;;;;200.80;191.40;;;8.00;99.90;;;;;;5095302;27;20039;-75
2023/06/04 01:44:34;;;;;;;213.90;204.63;;;8.00;99.90;;;;;;5080718;28;20036;-75
2023/06/04 01:47:00;;;;;;;218.13;208.00;;;8.00;99.90;;;;;;5083571;28;20044;-75
2023/06/04 01:49:25;;;;;;;214.02;204.20;;;8.10;99.90;;;;;;5073292;28;20183;-75
2023/06/04 01:51:51;;;;;;;210.63;201.00;;;8.10;99.90;;;;;;5091174;28;20035;-75
2023/06/04 01:54:17;;;;;;;227.35;216.88;;;8.10;99.90;;;;;;5077920;28;20039;-75
2023/06/04 01:56:43;;;;;;;217.90;207.80;;;8.10;99.90;;;;;;5073482;28;20039;-75
2023/06/04 01:59:11;;;;;;;231.30;220.93;;;8.10;99.90;;;;;;5071696;28;20079;-75
2023/06/04 02:01:38;;;;;;;225.48;215.55;;;8.10;99.90;;;;;;5069851;28;20039;-75
2023/06/04 02:04:03;;;;;;;229.93;219.52;;;8.10;99.90;;;;;;5059182;28;20048;-75
2023/06/04 02:06:29;;;;;;;226.13;216.18;;;8.10;99.90;;;;;;5091806;28;20065;-74
2023/06/04 02:08:55;;;;;;;221.68;211.70;;;8.10;99.90;;;;;;5091892;28;20040;-75
2023/06/04 02:11:21;;;;;;;221.18;210.75;;;8.10;99.90;;;;;;5073848;28;20466;-74
2023/06/04 02:13:47;;;;;;;216.50;206.82;;;8.10;99.90;;;;;;5071982;27;20035;-75
2023/06/04 02:16:13;;;;;;;226.45;215.93;;;8.10;99.90;;;;;;5084561;28;20517;-75
2023/06/04 02:18:39;;;;;;;224.07;213.98;;;8.10;99.90;;;;;;5085154;28;20539;-74
2023/06/04 02:21:05;;;;;;;236.55;225.65;;;8.10;99.90;;;;;;5092338;27;20564;-75
2023/06/04 02:23:31;;;;;;;219.30;209.07;;;8.20;99.90;;;;;;5070072;28;20043;-75
2023/06/04 02:25:56;;;;;;;216.13;206.10;;;8.20;99.90;;;;;;5091657;28;20032;-75
2023/06/04 02:28:22;;;;;;;221.02;210.93;;;8.10;99.90;;;;;;5088705;28;20108;-74
2023/06/04 02:30:48;;;;;;;241.02;229.82;;;8.10;99.90;;;;;;5089763;28;20130;-75
2023/06/04 02:33:14;;;;;;;228.63;218.13;;;8.10;99.90;;;;;;5094660;27;20483;-74
2023/06/04 02:35:40;;;;;;;226.60;216.18;;;8.10;99.90;;;;;;5073641;28;20054;-75
2023/06/04 02:38:07;;;;;;;210.27;201.15;;;8.10;99.90;;;;;;5071231;28;20134;-74
2023/06/04 02:40:32;;;;;;;214.90;204.95;;;8.00;99.90;;;;;;5070022;28;20600;-74
2023/06/04 02:42:58;;;;;;;199.57;190.65;;;8.00;99.90;;;;;;5074867;28;20043;-74
2023/06/04 02:45:24;;;;;;;184.40;176.15;;;8.00;99.90;;;;;;5090939;28;20672;-74
2023/06/04 02:47:50;;;;;;;244.60;233.38;;;7.90;99.90;;;;;;5090260;28;20425;-75
2023/06/04 02:50:16;;;;;;;210.50;201.35;;;7.90;99.90;;;;;;5063749;28;20048;-74
2023/06/04 02:52:42;;;;;;;165.82;158.15;;;7.90;99.90;;;;;;5073091;27;20043;-74
2023/06/04 02:55:09;;;;;;;200.27;191.43;;;7.80;99.90;;;;;;5098573;27;20563;-74
2023/06/04 02:57:35;;;;;;;205.50;196.30;;;7.80;99.90;;;;;;5083176;28;20039;-74
2023/06/04 03:00:10;;;;;;;245.60;234.43;;;7.70;99.90;;;;;;5073830;28;20035;-74
2023/06/04 03:02:36;;;;;;;245.70;234.90;;;7.70;99.90;;;;;;5083409;28;20126;-75
2023/06/04 03:05:02;;;;;;;245.98;234.93;;;7.70;99.90;;;;;;5087939;27;20146;-74
2023/06/04 03:07:28;;;;;;;254.57;243.05;;;7.70;99.90;;;;;;5087386;28;20074;-74
2023/06/04 03:09:53;;;;;;;235.63;225.18;;;7.80;99.90;;;;;;5073133;28;20035;-74
2023/06/04 03:12:19;;;;;;;242.45;231.77;;;7.70;99.90;;;;;;5072898;28;20449;-74
2023/06/04 03:14:45;;;;;;;229.13;218.63;;;7.70;99.90;;;;;;5086451;28;20505;-74
2023/06/04 03:17:10;;;;;;;245.10;234.23;;;7.60;99.90;;;;;;5075235;28;20043;-74
2023/06/04 03:19:41;;;;;;;254.55;243.57;;;7.60;99.90;;;;;;5087056;28;20047;-74
2023/06/04 03:22:08;;;;;;;259.10;247.45;;;7.60;99.90;;;;;;5072890;28;20047;-74
2023/06/04 03:24:39;;;;;;;236.52;225.50;;;7.60;99.90;;;;;;5073050;28;20416;-74
2023/06/04 03:27:07;;;;;;;242.43;231.55;;;7.60;99.90;;;;;;5091417;28;20039;-74
2023/06/04 03:29:33;;;;;;;226.88;216.73;;;7.50;99.90;;;;;;5078341;28;20055;-73
2023/06/04 03:31:59;;;;;;;229.60;218.70;;;7.60;99.90;;;;;;5082199;28;20036;-74
2023/06/04 03:34:25;;;;;;;198.60;189.63;;;7.60;99.90;;;;;;5066362;28;20078;-74
2023/06/04 03:36:52;;;;;;;199.13;189.77;;;7.70;99.90;;;;;;5087787;27;20039;-74
2023/06/04 03:39:18;;;;;;;202.73;193.20;;;7.70;99.90;;;;;;5097567;28;20469;-74
2023/06/04 03:41:44;;;;;;;182.35;173.50;;;7.70;99.90;;;;;;5078082;28;20416;-74
2023/06/04 03:44:12;;;;;;;181.57;172.98;;;7.70;99.90;;;;;;5070771;28;20141;-73
2023/06/04 03:46:37;;;;;;;197.68;187.88;;;7.80;99.90;;;;;;5065322;28;20142;-74
2023/06/04 03:49:03;;;;;;;206.63;196.68;;;7.80;99.90;;;;;;5095739;28;20130;-74
2023/06/04 03:51:28;;;;;;;185.30;176.57;;;7.80;99.90;;;;;;5084152;28;20489;-74
2023/06/04 03:53:55;;;;;;;214.98;204.65;;;7.90;99.90;;;;;;5059683;28;20035;-74
2023/06/04 03:56:21;;;;;;;184.95;176.38;;;8.00;99.90;;;;;;5096277;28;20415;-74
2023/06/04 03:58:47;;;;;;;175.93;167.70;;;8.00;99.90;;;;;;5073835;28;20118;-73
2023/06/04 04:01:13;;;;;;;195.25;185.63;;;8.10;99.90;;;;;;5064849;28;20628;-74
2023/06/04 04:03:38;;;;;;;205.50;196.32;;;8.10;99.90;;;;;;5088137;28;20039;-74
2023/06/04 04:06:04;;;;;;;184.23;175.35;;;8.20;99.90;;;;;;5089543;28;20039;-74
2023/06/04 04:08:31;;;;;;;182.52;173.82;;;8.20;99.90;;;;;;5071795;28;20072;-74
2023/06/04 04:11:01;;;;;;;192.40;183.40;;;8.20;99.90;;;;;;5083793;28;20046;-74
2023/06/04 04:13:26;;;;;;;197.25;188.07;;;8.30;99.90;;;;;;5071951;28;20039;-74
2023/06/04 04:15:52;;;;;;;191.65;182.68;;;8.30;99.90;;;;;;5066849;28;20085;-74
2023/06/04 04:18:22;;;;;;;190.32;181.25;;;8.40;99.90;;;;;;5086007;28;20495;-74
2023/06/04 04:20:48;;;;;;;191.75;182.00;;;8.50;99.90;;;;;;5084063;28;20113;-74
2023/06/04 04:23:14;;;;;;;197.90;188.70;;;8.50;99.90;;;;;;5078972;28;20055;-74
2023/06/04 04:25:41;;;;;;;203.55;193.77;;;8.50;99.90;;;;;;5062477;28;20047;-74
2023/06/04 04:28:06;;;;;;;204.63;195.00;;;8.70;99.90;;;;;;5056508;28;20062;-74
2023/06/04 04:30:36;;;;;;;187.32;178.27;;;8.90;99.90;;;;;;5089487;28;20048;-74
2023/06/04 04:33:05;;;;;;;203.57;193.65;;;9.00;99.90;;;;;;5087796;28;20032;-74
2023/06/04 04:35:32;;;;;;;198.52;188.90;;;9.10;99.90;;;;;;5087979;28;20043;-74
2023/06/04 04:38:03;;;;;;;213.45;202.93;;;9.20;99.90;;;;;;5088245;28;20499;-74
2023/06/04 04:40:30;;;;;;;208.90;198.70;;;9.20;99.90;;;;;;5089914;28;20077;-74
2023/06/04 04:42:56;;;;;;;215.73;205.15;;;9.30;99.90;;;;;;5082581;28;20046;-74
2023/06/04 04:45:22;;;;;;;217.70;207.43;;;9.30;99.90;;;;;;5065596;28;20040;-74
2023/06/04 04:47:47;;;;;;;220.60;210.02;;;9.40;99.90;;;;;;5065739;28;20730;-73
2023/06/04 04:50:13;;;;;;;239.35;227.98;;;9.40;99.90;;;;;;5092583;28;20401;-74
2023/06/04 04:52:39;;;;;;;217.98;207.82;;;9.50;99.90;;;;;;5100480;28;20172;-74
2023/06/04 04:55:06;;;;;;;207.60;197.98;;;9.60;99.90;;;;;;5074620;28;20035;-74
2023/06/04 04:57:32;;;;;;;202.07;192.48;;;9.70;99.90;;;;;;5086845;28;20374;-74
2023/06/04 04:59:57;;;;;;;190.38;181.75;;;9.80;99.90;;;;;;5089298;28;20123;-74
2023/06/04 05:02:23;;;;;;;185.38;176.50;;;9.80;99.90;;;;;;5073717;28;20650;-74
2023/06/04 05:04:49;;;;;;;171.23;162.90;;;10.00;99.90;;;;;;5087076;28;20043;-74
2023/06/04 05:07:15;;;;;;;161.38;153.18;;;10.10;99.90;;;;;;5083321;28;20072;-74
2023/06/04 05:09:41;;;;;;;147.52;140.23;;;10.30;99.90;;;;;;5088059;28;20047;-74
2023/06/04 05:12:06;;;;;;;139.77;132.73;;;10.40;99.90;;;;;;5071594;27;20043;-74
2023/06/04 05:14:35;;;;;;;133.05;126.28;;;10.60;99.90;;;;;;5075742;28;20042;-74
2023/06/04 05:17:03;;;;;;;119.35;112.97;;;10.70;99.90;;;;;;5090948;28;20054;-74
2023/06/04 05:19:28;;;;;;;142.68;135.40;;;11.00;99.90;;;;;;5064116;28;20491;-74
2023/06/04 05:21:54;;;;;;;140.82;134.10;;;11.20;99.90;;;;;;5075721;28;20043;-74
2023/06/04 05:24:20;;;;;;;145.98;138.88;;;11.40;99.90;;;;;;5085840;28;20040;-74
2023/06/04 05:26:48;;;;;;;143.98;137.27;;;11.40;99.90;;;;;;5081278;27;20035;-74
2023/06/04 05:29:13;;;;;;;144.77;137.82;;;11.50;99.90;;;;;;5071295;28;20113;-74
2023/06/04 05:31:39;;;;;;;153.18;145.75;;;11.60;99.90;;;;;;5081040;28;20044;-75
2023/06/04 05:34:05;;;;;;;156.55;149.40;;;11.70;99.90;;;;;;5089609;28;20070;-75
2023/06/04 05:36:31;;;;;;;178.23;170.25;;;11.90;99.90;;;;;;5066673;28;20399;-75
2023/06/04 05:38:57;;;;;;;189.73;181.23;;;11.90;99.90;;;;;;5080515;28;20036;-75
2023/06/04 05:41:27;;;;;;;180.88;172.80;;;12.00;99.90;;;;;;5065885;28;20177;-74
2023/06/04 05:43:53;;;;;;;147.43;140.77;;;12.20;99.90;;;;;;5093714;27;20122;-75
2023/06/04 05:46:19;;;;;;;147.95;140.93;;;12.40;99.90;;;;;;5092206;28;20040;-75
2023/06/04 05:48:45;;;;;;;160.50;153.05;;;12.50;99.90;;;;;;5101373;28;20036;-75
2023/06/04 05:51:13;;;;;;;163.65;156.32;;;12.50;99.90;;;;;;5076321;27;20039;-75
2023/06/04 05:53:38;;;;;;;145.57;138.73;;;12.70;99.90;;;;;;5082302;28;20566;-75
2023/06/04 05:56:04;;;;;;;93.75;88.70;;;12.80;99.90;;;;;;5103918;27;20043;-75
2023/06/04 05:58:32;;;;;;;95.05;90.03;;;13.00;99.90;;;;;;5075044;28;20039;-75
2023/06/04 06:00:58;;;;;;;106.25;100.97;;;13.10;99.90;;;;;;5090579;28;20047;-75
2023/06/04 06:03:23;;;;;;;163.20;155.40;;;13.20;99.90;;;;;;5072274;28;20043;-75
2023/06/04 06:05:49;;;;;;;152.88;145.52;;;13.60;99.90;;;;;;5075859;28;20047;-76
2023/06/04 06:08:15;;;;;;;102.60;97.68;;;13.80;99.90;;;;;;5070847;28;20043;-76
2023/06/04 06:10:40;;;;;;;125.38;119.20;;;13.90;99.90;;;;;;5075114;28;20514;-76
2023/06/04 06:13:06;;;;;;;181.07;172.90;;;14.00;99.90;;;;;;5064180;28;20412;-76
2023/06/04 06:15:32;;;;;;;176.27;168.38;;;14.30;99.90;;;;;;5091869;27;20045;-77
2023/06/04 06:17:58;;;;;;;166.32;158.73;;;15.10;99.90;;;;;;5086599;28;20131;-77
2023/06/04 06:20:24;;;;;;;240.52;229.48;;;16.00;99.90;;;;;;5086159;28;20455;-78
2023/06/04 06:22:50;;;;;;;228.75;218.70;;;16.70;99.90;;;;;;5086967;28;20044;-78
2023/06/04 06:25:16;;;;;;;240.57;229.68;;;17.30;99.90;;;;;;5072119;28;20044;-78
2023/06/04 06:27:42;;;;;;;190.68;182.25;;;18.10;99.90;;;;;;5091882;28;20407;-77
2023/06/04 06:30:09;;;;;;;220.80;211.15;;;18.50;99.90;;;;;;5109170;28;20527;-78
2023/06/04 06:32:35;;;;;;;214.95;205.60;;;18.70;99.90;;;;;;5093083;28;20127;-78
2023/06/04 06:35:01;;;;;;;161.85;154.48;;;18.90;99.90;;;;;;5108806;28;20040;-77
2023/06/04 06:37:27;;;;;;;133.05;126.93;;;19.00;99.90;;;;;;5088589;28;20067;-78
2023/06/04 06:39:53;;;;;;;164.98;157.65;;;18.90;99.90;;;;;;5070703;28;20501;-77
2023/06/04 06:42:19;;;;;;;139.88;133.52;;;19.20;99.90;;;;;;5073284;28;20080;-78
2023/06/04 06:44:45;;;;;;;109.65;104.57;;;19.40;99.90;;;;;;5108868;28;20050;-77
2023/06/04 06:47:13;;;;;;;105.45;100.63;;;19.80;99.90;;;;;;5069184;27;20043;-77
2023/06/04 06:49:40;;;;;;;149.70;142.75;;;20.10;99.90;;;;;;5068400;28;20122;-78
2023/06/04 06:52:05;;;;;;;105.63;100.57;;;20.40;99.90;;;;;;5072007;28;20055;-79
2023/06/04 06:54:31;;;;;;;142.93;136.60;;;20.60;99.90;;;;;;5073114;27;20395;-78
2023/06/04 06:56:57;;;;;;;162.30;155.07;;;20.60;99.90;;;;;;5071850;28;20046;-80
2023/06/04 06:59:23;;;;;;;201.48;192.80;;;20.70;99.90;;;;;;5089517;28;20449;-78
2023/06/04 07:01:49;;;;;;;215.70;206.32;;;20.60;99.90;;;;;;5066769;28;20044;-79
2023/06/04 07:04:15;;;;;;;335.48;320.00;;;20.80;99.90;;;;;;5091016;28;20403;-78
2023/06/04 07:06:42;;;;;;;335.77;320.27;;;20.90;99.90;;;;;;5074396;28;20039;-78
2023/06/04 07:09:08;;;;;;;360.88;343.90;;;21.00;99.90;;;;;;5070624;28;20834;-79
2023/06/04 07:11:34;;;;;;;319.02;304.45;;;21.30;99.90;;;;;;5086506;28;20448;-77
2023/06/04 07:14:02;;;;;;;399.42;380.30;;;21.30;99.90;;;;;;5082538;27;20032;-77
2023/06/04 07:16:28;;;;;;;404.08;383.95;;;21.20;99.90;;;;;;5071741;28;20044;-79
2023/06/04 07:18:54;;;;;;;383.85;365.25;;;21.20;99.90;;;;;;5071512;28;20095;-77
2023/06/04 07:21:21;;;;;;;357.40;340.50;;;21.30;99.90;;;;;;5089534;27;20478;-78
2023/06/04 07:23:49;;;;;;;146.00;139.57;;;21.20;99.90;;;;;;5073114;28;20052;-77
2023/06/04 07:26:16;;;;;;;26.58;25.05;;;21.40;99.90;;;;;;5090177;28;20035;-79
2023/06/04 07:28:42;;;;;;;22.20;20.77;;;21.20;98.90;;;;;;5087957;28;20471;-79
2023/06/04 07:31:07;;;;;;;19.63;18.38;;;21.40;98.20;;;;;;5083394;28;20105;-78
2023/06/04 07:33:33;;;;;;;17.20;15.90;;;21.40;97.70;;;;;;5084062;28;20494;-79
2023/06/04 07:35:59;;;;;;;16.38;15.23;;;21.40;98.30;;;;;;5076081;28;20040;-77
2023/06/04 07:38:25;;;;;;;17.85;16.75;;;21.50;97.90;;;;;;5071612;28;20031;-79
2023/06/04 07:40:51;;;;;;;18.15;16.75;;;21.50;97.00;;;;;;5091823;27;20042;-80
2023/06/04 07:43:17;;;;;;;18.52;17.33;;;21.60;97.20;;;;;;5087222;28;20043;-78
2023/06/04 07:45:42;;;;;;;17.50;16.35;;;21.50;95.40;;;;;;5085084;28;20044;-79
2023/06/04 07:48:11;;;;;;;18.08;16.88;;;21.70;95.70;;;;;;5071121;28;20043;-78
2023/06/04 07:50:37;;;;;;;20.58;19.38;;;22.00;96.30;;;;;;5086765;28;20120;-78
2023/06/04 07:53:03;;;;;;;22.65;21.25;;;22.20;96.50;;;;;;5088584;28;20130;-76
2023/06/04 07:55:28;;;;;;;24.08;22.58;;;22.00;94.90;;;;;;5090327;28;20044;-80
2023/06/04 07:57:54;;;;;;;22.58;21.20;;;22.00;95.00;;;;;;5084096;28;20069;-78
2023/06/04 08:00:20;;;;;;;27.42;25.95;;;22.00;94.60;;;;;;5088585;28;20043;-80
2023/06/04 08:02:45;;;;;;;25.33;23.75;;;21.90;95.30;;;;;;5090487;28;20139;-76
2023/06/04 08:05:13;;;;;;;27.33;25.77;;;22.00;95.30;;;;;;5077518;28;20043;-78
2023/06/04 08:07:40;;;;;;;26.50;25.00;;;22.00;95.20;;;;;;5072091;28;20114;-78
2023/06/04 08:10:06;;;;;;;20.88;19.58;;;22.00;94.10;;;;;;5089085;28;20550;-77
2023/06/04 08:12:32;;;;;;;18.70;17.50;;;21.60;93.80;;;;;;5086750;28;20043;-78
2023/06/04 08:14:58;;;;;;;21.73;20.27;;;21.30;95.70;;;;;;5088049;28;20384;-79
2023/06/04 08:17:24;;;;;;;17.75;16.35;;;21.30;95.90;;;;;;5072051;28;20162;-79
2023/06/04 08:19:49;;;;;;;17.63;16.50;;;21.50;95.80;;;;;;5078521;28;20047;-79
2023/06/04 08:22:15;;;;;;;15.85;14.68;;;21.60;94.50;;;;;;5098137;28;20129;-80
2023/06/04 08:24:41;;;;;;;20.25;18.73;;;21.80;94.40;;;;;;5089575;28;20032;-76
2023/06/04 08:27:08;;;;;;;19.73;18.38;;;22.00;93.90;;;;;;5070109;28;20050;-77
2023/06/04 08:29:35;;;;;;;20.50;19.30;;;22.10;94.20;;;;;;5072261;28;20052;-78
2023/06/04 08:32:02;;;;;;;24.17;22.67;;;22.40;94.70;;;;;;5071937;28;20051;-79
2023/06/04 08:34:28;;;;;;;65.93;62.88;;;22.60;94.20;;;;;;5072361;28;20058;-78
2023/06/04 08:36:53;;;;;;;34.50;32.47;;;22.80;94.60;;;;;;5067352;28;20047;-78
2023/06/04 08:39:19;;;;;;;28.27;26.67;;;23.10;93.90;;;;;;5069321;28;20562;-77
2023/06/04 08:41:49;;;;;;;35.17;32.63;;;23.20;93.40;;;;;;5097299;28;20497;-78
2023/06/04 08:44:17;;;;;;;55.00;52.15;;;23.10;93.50;;;;;;5086867;28;20043;-79
2023/06/04 08:46:44;;;;;;;72.82;69.28;;;22.80;91.70;;;;;;5096005;28;20090;-77
2023/06/04 08:49:12;;;;;;;47.72;45.30;;;22.60;91.70;;;;;;5086831;28;20036;-77
2023/06/04 08:51:38;;;;;;;39.38;37.13;;;22.40;91.50;;;;;;5074641;28;20024;-77
2023/06/04 08:54:08;;;;;;;30.60;28.58;;;22.30;91.60;;;;;;5072831;28;21337;-79
2023/06/04 08:56:36;;;;;;;33.28;30.00;;;22.40;91.60;;;;;;5090672;28;20061;-78
2023/06/04 08:59:06;;;;;;;22.70;21.48;;;22.30;90.90;;;;;;5085511;28;20488;-79
2023/06/04 09:01:33;;;;;;;24.75;23.23;;;22.30;91.70;;;;;;5104597;28;20035;-79
2023/06/04 09:04:01;;;;;;;36.95;35.00;;;22.20;91.20;;;;;;5092691;28;20043;-79
2023/06/04 09:06:27;;;;;;;37.85;35.78;;;22.00;90.80;;;;;;5071652;27;20031;-78
2023/06/04 09:08:59;;;;;;;16.80;15.65;;;21.70;89.20;;;;;;5069861;28;20042;-79
2023/06/04 09:11:37;;;;;;;28.90;27.42;;;21.60;91.20;;;;;;5088599;27;20043;-77
2023/06/04 09:14:08;;;;;;;35.40;33.60;;;21.80;91.00;;;;;;5095158;28;20071;-77
2023/06/04 09:16:46;;;;;;;25.30;23.85;;;21.70;89.80;;;;;;5096407;27;20081;-76
2023/06/04 09:19:12;;;;;;;15.73;14.55;;;21.70;90.60;;;;;;5088398;28;20079;-79
2023/06/04 09:21:51;;;;;;;16.50;15.40;;;21.70;91.00;;;;;;5076085;28;20079;-76
2023/06/04 09:24:22;;;;;;;16.70;15.70;;;21.70;89.60;;;;;;5097976;27;20047;-76
2023/06/04 09:26:48;;;;;;;24.40;23.05;;;21.80;90.50;;;;;;5098182;28;20051;-78
2023/06/04 09:29:15;;;;;;;14.02;13.02;;;21.90;90.50;;;;;;5076280;28;20123;-79
2023/06/04 09:31:41;;;;;;;36.08;34.10;;;21.90;90.20;;;;;;5075558;27;20036;-77
2023/06/04 09:34:07;;;;;;;24.75;23.33;;;21.80;87.40;;;;;;5074407;27;20042;-78
2023/06/04 09:36:35;;;;;;;10.07;9.30;;;21.50;86.70;;;;;;5075785;28;20376;-77
2023/06/04 09:39:03;;;;;;;29.30;27.83;;;21.40;88.50;;;;;;5077565;28;20035;-77
2023/06/04 09:41:28;;;;;;;25.52;24.05;;;21.40;87.40;;;;;;5092958;28;20035;-77
2023/06/04 09:44:05;;;;;;;11.05;10.35;;;21.40;89.60;;;;;;5069094;28;20471;-76
2023/06/04 09:46:31;;;;;;;19.50;18.30;;;21.50;88.50;;;;;;5093000;28;20046;-78
2023/06/04 09:49:05;;;;;;;26.48;25.08;;;21.50;88.00;;;;;;5097607;27;20542;-78
2023/06/04 09:51:31;;;;;;;25.05;23.80;;;21.50;85.90;;;;;;5086405;28;20043;-77
2023/06/04 09:54:02;;;;;;;25.00;23.63;;;21.50;86.10;;;;;;5072073;28;20047;-78
2023/06/04 09:56:28;;;;;;;19.25;18.00;;;21.50;85.10;;;;;;5088948;28;20130;-78
2023/06/04 09:58:57;;;;;;;16.88;15.85;;;21.50;88.20;;;;;;5067861;28;20180;-80
2023/06/04 10:01:26;;;;;;;42.50;40.42;;;21.70;89.30;;;;;;5070495;28;20036;-79
2023/06/04 10:03:53;;;;;;;35.67;33.80;;;21.80;87.00;;;;;;5090917;28;20041;-78
2023/06/04 10:06:22;;;;;;;19.75;18.55;;;21.70;86.30;;;;;;5090203;28;20038;-78
2023/06/04 10:08:50;;;;;;;18.65;17.35;;;21.60;88.70;;;;;;5073214;28;20120;-78
2023/06/04 10:11:25;;;;;;;27.85;26.35;;;21.70;88.00;;;;;;5091642;28;20051;-77
2023/06/04 10:14:02;;;;;;;25.65;24.10;;;21.70;84.70;;;;;;5109221;28;20043;-79
2023/06/04 10:16:30;;;;;;;23.80;22.30;;;21.50;84.70;;;;;;5073434;28;20027;-78
2023/06/04 10:18:58;;;;;;;23.77;22.20;;;21.60;86.40;;;;;;5071867;27;20027;-78
2023/06/04 10:21:25;;;;;;;19.23;17.88;;;21.70;88.60;;;;;;5090149;28;20392;-77
2023/06/04 10:23:51;;;;;;;23.00;21.77;;;21.80;88.40;;;;;;5059857;28;20111;-77
2023/06/04 10:26:17;;;;;;;24.67;23.35;;;21.80;87.20;;;;;;5065192;28;20059;-79
2023/06/04 10:28:43;;;;;;;22.95;21.45;;;21.80;87.70;;;;;;5066145;28;20056;-79
2023/06/04 10:31:10;;;;;;;14.98;13.98;;;21.60;86.40;;;;;;5064939;28;20662;-77
2023/06/04 10:33:36;;;;;;;17.38;16.38;;;21.50;87.80;;;;;;5081634;28;20115;-79
2023/06/04 10:36:16;;;;;;;19.55;18.40;;;21.60;88.80;;;;;;5085392;28;20567;-77
2023/06/04 10:38:51;;;;;;;15.82;14.82;;;21.70;87.00;;;;;;5082399;28;21014;-79
2023/06/04 10:41:18;;;;;;;22.05;20.85;;;21.80;88.00;;;;;;5086117;27;20047;-77
2023/06/04 10:43:46;;;;;;;17.75;16.75;;;21.80;87.40;;;;;;5088131;28;20689;-77
2023/06/04 10:46:16;;;;;;;38.92;36.67;;;21.80;88.30;;;;;;5067988;27;20039;-79
2023/06/04 10:48:52;;;;;;;26.67;25.17;;;21.90;88.10;;;;;;5069384;28;20076;-79
2023/06/04 10:51:32;;;;;;;17.25;16.15;;;21.90;82.50;;;;;;5088248;27;20456;-79
2023/06/04 10:53:59;;;;;;;24.20;22.65;;;21.90;83.60;;;;;;5087402;28;20048;-77
2023/06/04 10:56:34;;;;;;;14.85;13.77;;;21.80;86.90;;;;;;5088734;28;20092;-77
2023/06/04 10:59:01;;;;;;;19.05;17.88;;;21.80;87.50;;;;;;5061754;28;20050;-77
2023/06/04 11:01:28;;;;;;;20.02;18.75;;;21.90;85.20;;;;;;5073269;28;20043;-78
2023/06/04 11:03:55;;;;;;;18.83;17.58;;;21.90;84.30;;;;;;5074338;28;20554;-78
2023/06/04 11:06:22;;;;;;;19.92;18.67;;;21.90;82.70;;;;;;5070428;28;20145;-79
2023/06/04 11:08:48;;;;;;;19.15;17.90;;;21.80;85.00;;;;;;5082207;28;20471;-76
2023/06/04 11:11:15;;;;;;;28.25;26.75;;;22.00;86.90;;;;;;5070043;28;20054;-77
2023/06/04 11:13:41;;;;;;;11.57;10.77;;;22.10;85.60;;;;;;5071947;28;20036;-78
2023/06/04 11:16:18;;;;;;;12.20;11.40;;;22.10;84.40;;;;;;5073814;27;20046;-77
2023/06/04 11:18:54;;;;;;;12.48;11.75;;;22.10;84.00;;;;;;5076714;28;20150;-77
2023/06/04 11:21:21;;;;;;;14.95;13.90;;;22.10;85.70;;;;;;5073216;28;20093;-79
2023/06/04 11:23:46;;;;;;;12.98;12.02;;;22.10;85.80;;;;;;5061288;28;20447;-78
2023/06/04 11:26:12;;;;;;;11.57;10.68;;;22.30;86.40;;;;;;5089031;28;20666;-78
2023/06/04 11:28:40;;;;;;;14.93;13.93;;;22.30;86.70;;;;;;5083872;28;20055;-77
2023/06/04 11:31:05;;;;;;;11.50;10.57;;;22.40;86.30;;;;;;5077624;28;20051;-78
2023/06/04 11:33:47;;;;;;;12.95;11.85;;;22.60;86.00;;;;;;5083583;28;20027;-76
2023/06/04 11:36:25;;;;;;;12.48;11.48;;;22.60;85.80;;;;;;5097145;28;20075;-76
2023/06/04 11:38:58;;;;;;;10.95;10.15;;;22.50;85.10;;;;;;5089733;28;20536;-78
2023/06/04 11:41:27;;;;;;;13.27;12.45;;;22.50;88.50;;;;;;5089200;28;20154;-78
2023/06/04 11:43:53;;;;;;;10.80;10.10;;;22.60;88.80;;;;;;5073107;28;20046;-77
2023/06/04 11:46:20;;;;;;;15.82;14.75;;;22.60;86.40;;;;;;5084490;28;20514;-77
2023/06/04 11:48:46;;;;;;;8.55;7.80;;;22.80;87.90;;;;;;5086721;28;20701;-78
2023/06/04 11:51:12;;;;;;;10.25;9.35;;;22.90;84.90;;;;;;5103088;28;20114;-76
2023/06/04 11:53:39;;;;;;;13.13;12.13;;;22.80;86.30;;;;;;5086482;28;20517;-76
2023/06/04 11:56:05;;;;;;;14.45;13.55;;;22.70;87.70;;;;;;5069453;28;20094;-79
2023/06/04 11:58:32;;;;;;;9.50;8.63;;;22.60;83.50;;;;;;5061107;28;20118;-77
2023/06/04 12:00:58;;;;;;;10.63;9.73;;;22.40;85.10;;;;;;5087280;28;20127;-77
2023/06/04 12:03:36;;;;;;;9.45;8.65;;;22.40;84.40;;;;;;5088424;28;20047;-77
2023/06/04 12:06:17;;;;;;;8.80;7.47;;;22.40;86.50;;;;;;5094182;28;20054;-78
2023/06/04 12:08:51;;;;;;;9.88;7.70;;;22.50;85.70;;;;;;5076258;28;20040;-76
2023/06/04 12:11:34;;;;;;;;;;;22.60;85.70;;;;;;5078525;28;20556;-78
2023/06/04 12:14:05;;;;;;;9.65;8.75;;;22.60;87.00;;;;;;5082435;28;19969;-77
2023/06/04 12:16:31;;;;;;;7.60;7.00;;;22.40;86.00;;;;;;5077943;28;20047;-77
2023/06/04 12:19:11;;;;;;;9.48;8.57;;;22.60;86.90;;;;;;5063785;28;20048;-77
2023/06/04 12:21:38;;;;;;;11.65;8.70;;;22.70;86.40;;;;;;5091441;28;20047;-78